Terminal Aerodrome Forecast
Issued by NWS

Home | Current Version | Previous Version | Text Only | Print | Product List | Glossary On
Versions: 1 2 3 4 5 6 7 8 9 10 11 12 13 14 15 16 17 18 19 20 21 22
236
FTUS41 KILN 241131
TAFLUK
TAF
KLUK 241131Z 2412/2512 00000KT P6SM SCT002
     FM241300 07006KT P6SM SCT250
     FM250000 VRB04KT P6SM SKC
     FM250600 00000KT 3SM BR SKC
     FM250900 00000KT 1/2SM FG VV003=

USA.gov is the U.S. government's official web portal to all federal, state and local government web resources and services.